Time;durP1;ratioP1;P1;durP2;ratioP2;P2;SDS_P1;SDS_P2;PMS_P1;PMS_P2;Temp;Humidity;BMP_temperature;BMP_pressure;BME280_temperature;BME280_humidity;BME280_pressure;Samples;Min_cycle;Max_cycle;Signal;HPM_P1;HPM_P2
2022/11/11 00:00:33;;;;;;;14.40;7.85;;;;;;;13.83;100.00;99144.25;6255111;22;20433;-87
2022/11/11 00:02:59;;;;;;;19.90;7.55;;;;;;;13.84;100.00;99137.13;6308004;22;20007;-86
2022/11/11 00:05:25;;;;;;;12.43;8.38;;;;;;;13.71;100.00;99136.22;6307857;22;20333;-87
2022/11/11 00:08:01;;;;;;;12.30;7.45;;;;;;;13.93;100.00;99129.78;6307389;22;20018;-87
2022/11/11 00:10:29;;;;;;;27.40;7.70;;;;;;;13.68;100.00;99128.72;6280819;22;20049;-87
2022/11/11 00:13:02;;;;;;;18.40;7.47;;;;;;;13.63;100.00;99144.38;6280811;22;20311;-86
2022/11/11 00:15:29;;;;;;;14.02;7.80;;;;;;;13.62;100.00;99141.97;6280108;22;20314;-87
2022/11/11 00:26:13;;;;;;;12.70;7.43;;;;;;;13.74;100.00;99145.50;6307250;22;20029;-85
2022/11/11 00:28:39;;;;;;;12.45;7.35;;;;;;;13.73;100.00;99143.09;6280615;22;20011;-85
2022/11/11 00:31:08;;;;;;;12.55;7.10;;;;;;;13.57;100.00;99140.78;6280561;22;20140;-87
2022/11/11 00:33:34;;;;;;;13.65;6.88;;;;;;;13.74;100.00;99161.34;6307738;22;20405;-86
2022/11/11 00:36:00;;;;;;;15.05;6.75;;;;;;;13.71;100.00;99141.50;6308094;22;20456;-85
2022/11/11 00:38:45;;;;;;;13.88;6.50;;;;;;;13.77;100.00;99154.84;6307858;22;20015;-86
2022/11/11 00:41:22;;;;;;;12.55;6.18;;;;;;;13.71;100.00;99148.59;6306845;22;20033;-86
2022/11/11 00:43:48;;;;;;;17.40;6.50;;;;;;;13.61;100.00;99156.16;6279514;22;20092;-86
2022/11/11 00:51:45;;;;;;;14.77;6.60;;;;;;;13.70;100.00;99145.16;6307449;22;20092;-86
2022/11/11 00:54:11;;;;;;;11.10;6.05;;;;;;;13.50;100.00;99150.53;6307194;22;20356;-85
2022/11/11 00:56:38;;;;;;;16.08;7.03;;;;;;;13.73;100.00;99143.09;6280385;22;20094;-87
2022/11/11 00:59:05;;;;;;;11.02;6.03;;;;;;;13.76;100.00;99142.69;6280092;22;20011;-86
2022/11/11 01:01:32;;;;;;;10.63;5.53;;;;;;;13.61;100.00;99142.97;6280270;22;20384;-85
2022/11/11 01:03:59;;;;;;;19.85;7.28;;;;;;;13.75;100.00;99136.59;6307818;22;20154;-86
2022/11/11 01:06:26;;;;;;;12.82;7.22;;;;;;;13.58;100.00;99120.47;6307390;22;20363;-86
2022/11/11 01:08:51;;;;;;;14.98;6.15;;;;;;;13.79;100.00;99135.16;6280402;22;20007;-86
2022/11/11 01:11:21;;;;;;;9.38;6.78;;;;;;;13.68;100.00;99141.09;6307204;22;20003;-86
2022/11/11 01:13:46;;;;;;;14.23;7.25;;;;;;;13.70;100.00;99128.50;6279556;22;20014;-87
2022/11/11 01:16:21;;;;;;;15.15;6.28;;;;;;;13.67;100.00;99139.47;6307495;22;20011;-86
2022/11/11 01:18:47;;;;;;;15.75;6.85;;;;;;;13.58;100.00;99125.75;6279515;22;20341;-87
2022/11/11 01:21:18;;;;;;;11.38;6.35;;;;;;;13.55;100.00;99137.50;6273545;22;20031;-86
2022/11/11 01:23:45;;;;;;;9.15;6.10;;;;;;;13.76;100.00;99132.94;6274719;22;20014;-86
2022/11/11 01:26:22;;;;;;;11.77;6.28;;;;;;;13.82;100.00;99137.38;6274949;22;20438;-86
2022/11/11 01:28:49;;;;;;;9.00;5.93;;;;;;;13.64;100.00;99145.19;6274535;22;20381;-87
2022/11/11 01:31:16;;;;;;;11.05;6.10;;;;;;;13.77;100.00;99139.84;6275689;22;20003;-87
2022/11/11 01:33:42;;;;;;;9.48;5.75;;;;;;;13.66;100.00;99137.88;6276271;22;20010;-87
2022/11/11 01:36:12;;;;;;;16.25;6.15;;;;;;;13.78;100.00;99122.16;6274490;22;20003;-86
2022/11/11 01:38:41;;;;;;;11.70;5.75;;;;;;;13.81;100.00;99119.91;6248417;22;20043;-85
2022/11/11 01:43:54;;;;;;;13.90;5.75;;;;;;;13.78;100.00;99120.34;6275730;22;20094;-86
2022/11/11 01:46:28;;;;;;;12.68;5.03;;;;;;;13.84;100.00;99132.69;6274755;22;20123;-86
2022/11/11 01:49:19;;;;;;;12.48;4.78;;;;;;;13.96;100.00;99137.28;6274786;22;20505;-86
2022/11/11 01:52:09;;;;;;;7.88;4.72;;;;;;;13.72;100.00;99131.75;6274685;22;20326;-87
2022/11/11 01:54:41;;;;;;;11.57;5.00;;;;;;;13.77;100.00;99129.28;6276346;22;20016;-85
2022/11/11 01:57:14;;;;;;;10.68;4.68;;;;;;;13.79;100.00;99136.97;6276588;22;20015;-86
2022/11/11 01:59:42;;;;;;;9.05;4.95;;;;;;;13.72;100.00;99129.09;6274180;22;20046;-86
2022/11/11 02:02:16;;;;;;;10.98;4.95;;;;;;;13.83;100.00;99132.88;6248741;22;20434;-86
2022/11/11 02:07:28;;;;;;;10.65;4.80;;;;;;;13.92;100.00;99121.06;6274390;22;20149;-87
2022/11/11 02:09:55;;;;;;;10.40;4.55;;;;;;;13.86;100.00;99137.75;6276558;22;20088;-88
2022/11/11 02:15:06;;;;;;;9.63;4.30;;;;;;;13.79;100.00;99131.69;6275883;22;20015;-85
2022/11/11 02:17:32;;;;;;;8.30;4.20;;;;;;;14.05;100.00;99130.69;6275810;22;20106;-86
2022/11/11 02:20:00;;;;;;;8.93;4.78;;;;;;;14.02;100.00;99138.22;6276655;22;20035;-85
2022/11/11 02:22:45;;;;;;;10.32;4.72;;;;;;;13.88;100.00;99134.88;6279021;22;20026;-85
2022/11/11 02:25:16;;;;;;;10.77;4.13;;;;;;;14.14;100.00;99133.88;6306076;22;20011;-87
2022/11/11 02:27:45;;;;;;;8.40;4.50;;;;;;;14.12;100.00;99125.38;6305653;22;20114;-85
2022/11/11 02:30:14;;;;;;;7.50;4.72;;;;;;;13.92;100.00;99136.91;6278407;22;20019;-85
2022/11/11 02:32:42;;;;;;;11.35;5.40;;;;;;;13.99;100.00;99147.41;6253439;22;20016;-87
2022/11/11 02:35:19;;;;;;;10.38;4.50;;;;;;;14.05;100.00;99141.25;6306333;22;20007;-87
2022/11/11 02:37:47;;;;;;;7.43;4.13;;;;;;;14.09;100.00;99144.28;6306725;22;20007;-86
2022/11/11 02:40:29;;;;;;;9.52;4.38;;;;;;;14.17;100.00;99127.38;6253302;22;20417;-85
2022/11/11 02:42:55;;;;;;;7.15;3.92;;;;;;;14.07;100.00;99128.66;6307152;22;20071;-85
2022/11/11 02:45:20;;;;;;;7.75;3.78;;;;;;;13.85;100.00;99131.66;6279537;22;20042;-88
2022/11/11 02:47:47;;;;;;;10.43;4.53;;;;;;;14.01;100.00;99126.88;6279327;22;20015;-86
2022/11/11 02:50:13;;;;;;;8.02;3.75;;;;;;;14.11;100.00;99124.56;6305961;22;20398;-87
2022/11/11 02:52:39;;;;;;;9.25;3.72;;;;;;;14.12;100.00;99125.38;6306485;22;20010;-86
2022/11/11 02:55:05;;;;;;;7.45;3.60;;;;;;;14.14;100.00;99133.88;6306540;22;20114;-86
2022/11/11 02:57:31;;;;;;;5.45;3.28;;;;;;;14.08;100.00;99145.31;6278038;22;20108;-86
2022/11/11 02:59:59;;;;;;;7.95;3.58;;;;;;;14.12;100.00;99139.38;6305997;22;20007;-84
2022/11/11 03:02:26;;;;;;;6.25;3.58;;;;;;;14.04;100.00;99128.25;6278315;22;20060;-84
2022/11/11 03:04:56;;;;;;;11.25;3.58;;;;;;;14.06;100.00;99145.50;6305897;22;20015;-84
2022/11/11 03:07:23;;;;;;;7.63;2.95;;;;;;;14.08;100.00;99138.19;6278942;22;20429;-86
2022/11/11 03:09:49;;;;;;;5.85;3.30;;;;;;;14.10;100.00;99137.97;6306812;22;20319;-85
2022/11/11 03:12:15;;;;;;;5.82;3.05;;;;;;;14.06;100.00;99132.31;6280876;22;20011;-86
2022/11/11 03:14:42;;;;;;;8.43;3.55;;;;;;;14.03;100.00;99153.03;6281246;22;20090;-86
2022/11/11 03:19:51;;;;;;;9.00;3.83;;;;;;;13.97;100.00;99134.41;6307949;22;20011;-85
2022/11/11 03:22:17;;;;;;;9.13;4.10;;;;;;;13.97;100.00;99141.53;6307092;22;20336;-85
2022/11/11 03:27:26;;;;;;;4.72;3.70;;;;;;;13.81;100.00;99135.75;6280271;22;20015;-86
2022/11/11 03:29:52;;;;;;;5.18;3.55;;;;;;;13.86;100.00;99135.13;6255110;22;20337;-87
2022/11/11 03:32:17;;;;;;;9.27;3.85;;;;;;;14.02;100.00;99144.34;6308242;22;19999;-85
2022/11/11 03:34:43;;;;;;;10.02;3.58;;;;;;;13.95;100.00;99146.19;6308610;22;20144;-87
2022/11/11 03:39:54;;;;;;;6.57;3.40;;;;;;;13.80;100.00;99123.59;6308476;22;20007;-85
2022/11/11 03:42:20;;;;;;;7.70;3.50;;;;;;;13.80;100.00;99136.78;6308293;22;20278;-86
2022/11/11 03:44:46;;;;;;;6.05;3.00;;;;;;;13.90;100.00;99119.66;6280851;22;20007;-86
2022/11/11 03:47:11;;;;;;;9.00;3.70;;;;;;;13.93;100.00;99137.69;6307189;22;20156;-86
2022/11/11 03:49:37;;;;;;;11.98;3.47;;;;;;;13.82;100.00;99145.28;6280256;22;20007;-86
2022/11/11 03:52:02;;;;;;;7.63;3.72;;;;;;;13.69;100.00;99142.72;6280309;22;20084;-86
2022/11/11 03:54:28;;;;;;;8.68;3.28;;;;;;;13.83;100.00;99138.97;6280809;22;20082;-88
2022/11/11 03:57:29;;;;;;;8.63;2.90;;;;;;;13.81;100.00;99141.03;6308333;22;20038;-86
2022/11/11 03:59:39;;;;;;;5.70;3.15;;;;;;;13.83;100.00;99154.81;6308245;22;20345;-87
2022/11/11 04:10:23;;;;;;;9.60;3.17;;;;;;;13.84;100.00;99137.13;6308179;22;20011;-86
2022/11/11 04:16:06;;;;;;;11.18;3.60;;;;;;;13.70;100.00;99141.69;6239293;22;20445;-85
2022/11/11 04:25:47;;;;;;;8.52;3.50;;;;;;;13.66;100.00;99158.97;6308057;22;20345;-87
2022/11/11 04:26:48;;;;;;;9.35;3.45;;;;;;;13.73;100.00;99159.72;6308148;22;20094;-86
2022/11/11 04:29:28;;;;;;;10.55;3.30;;;;;;;13.71;100.00;99156.50;6280430;22;20066;-86
2022/11/11 04:34:51;;;;;;;7.80;3.13;;;;;;;13.70;100.00;99162.78;6280464;22;20434;-85
2022/11/11 04:37:17;;;;;;;10.32;3.40;;;;;;;13.55;100.00;99168.38;6307732;22;20011;-85
2022/11/11 04:42:29;;;;;;;7.88;2.92;;;;;;;13.68;100.00;99180.66;6308198;22;20015;-86
2022/11/11 04:47:55;;;;;;;9.35;3.90;;;;;;;13.70;100.00;99171.53;6280254;22;20117;-86
2022/11/11 04:50:27;;;;;;;12.23;3.80;;;;;;;13.70;100.00;99179.44;6279832;22;20043;-86
2022/11/11 04:52:53;;;;;;;11.35;3.65;;;;;;;13.55;100.00;99173.63;6307059;22;20015;-86
2022/11/11 04:58:06;;;;;;;8.77;3.38;;;;;;;13.63;100.00;99180.50;6307170;22;20011;-86
2022/11/11 05:00:32;;;;;;;8.00;3.90;;;;;;;13.60;100.00;99184.34;6279505;22;20019;-87
2022/11/11 05:03:17;;;;;;;7.88;3.97;;;;;;;13.55;100.00;99179.69;6279542;22;20045;-86
2022/11/11 05:08:56;;;;;;;6.72;2.90;;;;;;;13.61;100.00;99179.91;6307306;22;20014;-85
2022/11/11 05:11:25;;;;;;;5.78;3.22;;;;;;;13.50;100.00;99187.44;6307025;22;20077;-86
2022/11/11 05:22:32;;;;;;;8.00;3.30;;;;;;;13.58;100.00;99178.50;6307004;22;20015;-85
2022/11/11 05:27:42;;;;;;;5.10;2.72;;;;;;;13.52;100.00;99166.94;6307595;22;20014;-86
2022/11/11 05:30:10;;;;;;;7.53;3.03;;;;;;;13.59;100.00;99163.47;6280345;22;20011;-85
2022/11/11 05:32:37;;;;;;;4.40;2.72;;;;;;;13.60;100.00;99183.56;6279861;22;20465;-88
2022/11/11 05:35:04;;;;;;;6.63;2.88;;;;;;;13.55;100.00;99184.97;6306942;22;20041;-85
2022/11/11 05:37:29;;;;;;;11.85;3.35;;;;;;;13.51;100.00;99162.69;6307072;22;20468;-87
2022/11/11 05:39:55;;;;;;;8.63;3.10;;;;;;;13.56;100.00;99181.34;6307131;22;20007;-85
2022/11/11 05:42:21;;;;;;;6.20;2.65;;;;;;;13.43;100.00;99187.47;6279937;22;20011;-85
2022/11/11 05:44:47;;;;;;;5.03;2.42;;;;;;;13.51;100.00;99194.34;6307295;22;20007;-87
2022/11/11 05:47:13;;;;;;;8.85;2.50;;;;;;;13.59;100.00;99185.38;6307450;22;20007;-86
2022/11/11 05:49:39;;;;;;;7.93;2.50;;;;;;;13.54;100.00;99193.91;6279828;22;20102;-85
2022/11/11 05:52:05;;;;;;;9.30;2.50;;;;;;;13.44;100.00;99193.56;6279463;22;20094;-87
2022/11/11 05:54:31;;;;;;;9.68;2.60;;;;;;;13.38;100.00;99197.81;6307096;22;20011;-85
2022/11/11 05:56:56;;;;;;;3.28;2.72;;;;;;;13.32;100.00;99201.28;6306368;22;20117;-85
2022/11/11 05:59:25;;;;;;;6.22;2.75;;;;;;;13.40;100.00;99223.97;6254682;22;20459;-87
2022/11/11 06:01:50;;;;;;;4.25;2.50;;;;;;;13.47;100.00;99222.16;6278959;22;20039;-85
2022/11/11 06:04:16;;;;;;;4.63;2.78;;;;;;;13.51;100.00;99212.78;6279385;22;20007;-85
2022/11/11 06:06:42;;;;;;;4.53;2.60;;;;;;;13.51;100.00;99225.19;6279237;22;20019;-85
2022/11/11 06:09:08;;;;;;;6.55;3.08;;;;;;;13.51;100.00;99230.47;6306677;22;20114;-87
2022/11/11 06:11:34;;;;;;;6.35;2.70;;;;;;;13.36;100.00;99223.56;6306782;22;20003;-87
2022/11/11 06:14:00;;;;;;;6.00;2.38;;;;;;;13.34;100.00;99227.44;6279728;22;20068;-85
2022/11/11 06:16:25;;;;;;;8.93;3.10;;;;;;;13.49;100.00;99212.19;6306987;22;20015;-87
2022/11/11 06:18:51;;;;;;;6.00;2.40;;;;;;;13.37;100.00;99211.22;6306901;22;20015;-85
2022/11/11 06:21:17;;;;;;;5.57;2.38;;;;;;;13.37;100.00;99240.22;6306114;22;20047;-86
2022/11/11 06:23:43;;;;;;;6.18;2.40;;;;;;;13.51;100.00;99225.97;6306414;22;20035;-86
2022/11/11 06:26:13;;;;;;;5.18;2.50;;;;;;;13.48;100.00;99230.88;6278991;22;20754;-86
2022/11/11 06:28:48;;;;;;;4.63;2.50;;;;;;;13.48;100.00;99223.75;6306203;22;20065;-86
2022/11/11 06:31:16;;;;;;;4.43;2.45;;;;;;;13.29;100.00;99249.97;6278647;22;20416;-85
2022/11/11 06:33:42;;;;;;;6.45;2.50;;;;;;;13.23;100.00;99256.06;6305681;22;20052;-86
2022/11/11 06:36:11;;;;;;;10.52;2.97;;;;;;;13.42;100.00;99264.94;6306029;22;20499;-85
2022/11/11 06:38:36;;;;;;;4.70;2.55;;;;;;;13.27;100.00;99254.63;6278887;22;20495;-84
2022/11/11 06:41:02;;;;;;;4.60;2.40;;;;;;;13.42;100.00;99269.41;6307170;22;20011;-85
2022/11/11 06:43:28;;;;;;;6.60;2.78;;;;;;;13.27;100.00;99254.63;6283510;22;20033;-86
2022/11/11 06:45:54;;;;;;;5.75;2.90;;;;;;;13.41;100.00;99265.16;6309479;22;20011;-85
2022/11/11 06:48:23;;;;;;;4.75;2.88;;;;;;;13.39;100.00;99267.19;6285963;22;20022;-85
2022/11/11 06:50:49;;;;;;;7.38;3.47;;;;;;;13.31;100.00;99264.75;6311422;22;20014;-85
2022/11/11 06:53:16;;;;;;;8.85;3.42;;;;;;;13.35;100.00;99272.06;6310490;22;20011;-84
2022/11/11 06:55:42;;;;;;;4.20;2.88;;;;;;;13.28;100.00;99272.06;6256837;22;20015;-85
2022/11/11 06:58:16;;;;;;;5.90;2.90;;;;;;;13.42;100.00;99277.31;6281370;22;20015;-85
2022/11/11 07:00:43;;;;;;;5.22;3.03;;;;;;;13.34;100.00;99274.88;6281113;22;20093;-86
2022/11/11 07:03:11;;;;;;;7.65;3.47;;;;;;;13.37;100.00;99282.41;6308938;22;20007;-85
2022/11/11 07:05:36;;;;;;;9.57;3.30;;;;;;;13.32;100.00;99275.09;6281298;22;20018;-84
2022/11/11 07:08:07;;;;;;;7.90;4.05;;;;;;;13.52;100.00;99290.09;6308063;22;20281;-86
2022/11/11 07:10:34;;;;;;;5.70;3.38;;;;;;;13.42;100.00;99295.78;6310246;22;20012;-89
2022/11/11 07:13:00;;;;;;;6.63;3.30;;;;;;;13.40;100.00;99298.59;6311445;22;20011;-88
2022/11/11 07:15:26;;;;;;;8.20;3.38;;;;;;;13.47;100.00;99300.47;6283082;22;20456;-88
2022/11/11 07:17:52;;;;;;;4.60;3.28;;;;;;;13.50;100.00;99302.69;6256258;22;20022;-87
2022/11/11 07:20:18;;;;;;;7.05;3.33;;;;;;;13.56;100.00;99310.56;6281135;22;20011;-88
2022/11/11 07:22:44;;;;;;;9.27;3.63;;;;;;;13.55;100.00;99322.13;6274831;22;20008;-87
2022/11/11 07:25:09;;;;;;;7.45;3.45;;;;;;;13.65;100.00;99320.88;6276343;22;20011;-88
2022/11/11 07:27:37;;;;;;;6.25;3.05;;;;;;;13.68;100.00;99325.75;6276749;22;20007;-88
2022/11/11 07:30:03;;;;;;;6.18;4.10;;;;;;;13.61;100.00;99331.03;6277216;22;20004;-86
2022/11/11 07:32:29;;;;;;;10.43;3.95;;;;;;;13.70;100.00;99334.25;6276689;22;20011;-88
2022/11/11 07:34:54;;;;;;;9.50;3.97;;;;;;;13.81;100.00;99338.06;6276491;22;20019;-86
2022/11/11 07:37:24;;;;;;;8.88;3.63;;;;;;;13.82;100.00;99348.44;6276075;22;20095;-87
2022/11/11 07:39:50;;;;;;;8.00;3.63;;;;;;;13.66;100.00;99351.53;6277803;22;20095;-88
2022/11/11 07:42:15;;;;;;;9.02;3.80;;;;;;;13.68;100.00;99352.13;6276172;22;20094;-86
2022/11/11 07:44:41;;;;;;;9.80;3.83;;;;;;;13.63;100.00;99365.13;6276496;22;20817;-87
2022/11/11 07:47:07;;;;;;;11.07;3.90;;;;;;;13.67;100.00;99366.34;6277534;22;20038;-86
2022/11/11 07:49:33;;;;;;;9.15;3.25;;;;;;;13.65;100.00;99376.28;6277556;22;20016;-88
2022/11/11 07:51:59;;;;;;;11.02;3.60;;;;;;;13.75;100.00;99384.56;6274515;22;20099;-87
2022/11/11 07:54:24;;;;;;;10.05;3.38;;;;;;;13.82;100.00;99401.22;6277332;22;20030;-88
2022/11/11 07:56:50;;;;;;;6.68;2.97;;;;;;;13.94;100.00;99392.63;6275579;22;20007;-88
2022/11/11 07:59:16;;;;;;;10.80;3.17;;;;;;;14.10;100.00;99404.59;6274682;22;20087;-84
2022/11/11 08:01:42;;;;;;;7.60;3.08;;;;;;;14.24;100.00;99413.25;6275871;22;20089;-85
2022/11/11 08:04:08;;;;;;;6.57;3.03;;;;;;;14.32;100.00;99405.09;6248430;22;20015;-84
2022/11/11 08:06:33;;;;;;;5.97;2.50;;;;;;;14.30;100.00;99404.47;6274147;22;20012;-83
2022/11/11 08:08:59;;;;;;;9.23;2.70;;;;;;;14.49;100.00;99418.63;6273916;22;20008;-85
2022/11/11 08:14:09;;;;;;;5.65;2.40;;;;;;;14.61;100.00;99418.78;6274355;22;20008;-84
2022/11/11 08:16:34;;;;;;;7.20;2.50;;;;;;;14.63;100.00;99422.00;6276458;22;20456;-82
2022/11/11 08:19:00;;;;;;;7.60;2.50;;;;;;;14.73;100.00;99402.25;6274806;22;20042;-82
2022/11/11 08:21:26;;;;;;;6.88;2.40;;;;;;;14.77;100.00;99414.06;6274912;22;20022;-81
2022/11/11 08:23:52;;;;;;;5.90;2.50;;;;;;;14.74;100.00;99420.56;6276185;22;20581;-82
2022/11/11 08:26:23;;;;;;;5.18;2.13;;;;;;;14.66;100.00;99437.44;6274445;22;20071;-82
2022/11/11 08:28:52;;;;;;;4.10;2.08;;;;;;;14.69;100.00;99429.09;6276282;22;20412;-80
2022/11/11 08:31:18;;;;;;;3.60;2.22;;;;;;;14.73;100.00;99448.00;6249060;22;20090;-83
2022/11/11 08:33:43;;;;;;;4.32;2.35;;;;;;;14.74;100.00;99448.81;6276459;22;20517;-82
2022/11/11 08:36:10;;;;;;;5.55;2.42;;;;;;;14.81;100.00;99441.66;6276055;22;20086;-81
2022/11/11 08:38:37;;;;;;;3.75;2.15;;;;;;;14.79;100.00;99446.34;6275964;22;20065;-81
2022/11/11 08:41:05;;;;;;;4.47;2.40;;;;;;;14.85;100.00;99445.50;6276403;22;20052;-82
2022/11/11 08:43:31;;;;;;;4.05;2.53;;;;;;;14.85;100.00;99451.59;6274691;22;20057;-83
2022/11/11 08:46:02;;;;;;;7.05;2.53;;;;;;;14.90;100.00;99447.50;6276263;22;20012;-82
2022/11/11 08:48:32;;;;;;;4.15;2.40;;;;;;;14.79;100.00;99467.50;6276423;22;20014;-82
2022/11/11 08:50:58;;;;;;;8.27;2.72;;;;;;;14.95;100.00;99456.44;6276076;22;20003;-83
2022/11/11 08:53:23;;;;;;;5.13;2.45;;;;;;;15.04;100.00;99470.19;6276088;22;20090;-82
2022/11/11 08:55:52;;;;;;;6.63;2.67;;;;;;;15.08;100.00;99481.13;6276533;22;20324;-81
2022/11/11 08:58:18;;;;;;;6.60;2.40;;;;;;;15.17;100.00;99471.94;6274374;22;20367;-81
2022/11/11 09:00:43;;;;;;;9.82;2.75;;;;;;;15.15;100.00;99476.63;6277006;22;20046;-80
2022/11/11 09:03:11;;;;;;;7.63;2.63;;;;;;;15.33;100.00;99488.28;6276003;22;20021;-83
2022/11/11 09:05:38;;;;;;;6.50;2.55;;;;;;;15.14;100.00;99486.38;6274514;22;20441;-81
2022/11/11 09:08:08;;;;;;;6.65;2.53;;;;;;;15.22;100.00;99489.78;6276048;22;20383;-83
2022/11/11 09:10:35;;;;;;;3.88;2.58;;;;;;;15.22;100.00;99480.03;6276013;22;20008;-82
2022/11/11 09:13:02;;;;;;;5.72;2.65;;;;;;;15.28;100.00;99488.94;6276174;22;20007;-82
2022/11/11 09:15:29;;;;;;;5.88;2.10;;;;;;;15.39;100.00;99482.16;6276073;22;20035;-82
2022/11/11 09:17:54;;;;;;;7.70;2.47;;;;;;;15.35;100.00;99483.63;6248740;22;20394;-82
2022/11/11 09:20:23;;;;;;;5.35;2.65;;;;;;;15.36;100.00;99477.31;6248986;22;20033;-83
2022/11/11 09:22:49;;;;;;;5.03;2.40;;;;;;;15.33;100.00;99480.34;6303001;22;20031;-83
2022/11/11 09:25:15;;;;;;;9.52;2.70;;;;;;;15.32;100.00;99486.66;6279332;22;20014;-83
2022/11/11 09:27:41;;;;;;;10.45;2.97;;;;;;;15.36;100.00;99490.53;6279475;22;20011;-82
2022/11/11 09:30:08;;;;;;;8.43;3.20;;;;;;;15.32;100.00;99489.31;6306625;22;20018;-82
2022/11/11 09:32:35;;;;;;;5.10;2.28;;;;;;;15.45;100.00;99478.66;6279419;22;20003;-83
2022/11/11 09:35:01;;;;;;;6.35;2.13;;;;;;;15.51;100.00;99475.13;6253495;22;20022;-83
2022/11/11 09:37:27;;;;;;;3.90;2.30;;;;;;;15.56;100.00;99477.97;6279475;22;20433;-82
2022/11/11 09:39:54;;;;;;;6.55;2.40;;;;;;;15.62;100.00;99491.34;6306789;22;20011;-82
2022/11/11 09:42:38;;;;;;;9.32;2.55;;;;;;;15.82;100.00;99489.31;6279065;22;20021;-83
2022/11/11 09:45:28;;;;;;;5.38;2.25;;;;;;;15.54;100.00;99480.00;6306747;22;20011;-83
2022/11/11 09:48:06;;;;;;;5.28;2.05;;;;;;;15.63;100.00;99492.97;6279598;22;20011;-83
2022/11/11 09:50:58;;;;;;;4.32;1.92;;;;;;;15.28;100.00;99487.09;6306371;22;20459;-83
2022/11/11 09:53:37;;;;;;;8.77;2.25;;;;;;;15.33;100.00;99483.00;6279342;22;20065;-83
2022/11/11 09:56:11;;;;;;;6.53;2.53;;;;;;;15.37;100.00;99484.22;6306559;22;20417;-84
2022/11/11 09:58:46;;;;;;;7.55;2.85;;;;;;;15.45;100.00;99494.53;6279493;22;20007;-82
2022/11/11 10:01:17;;;;;;;6.50;2.75;;;;;;;15.37;100.00;99490.28;6279159;22;20487;-82
2022/11/11 10:03:48;;;;;;;5.95;3.03;;;;;;;15.32;100.00;99497.25;6279256;22;20011;-83
2022/11/11 10:06:19;;;;;;;5.55;2.20;;;;;;;15.39;100.00;99492.75;6306721;22;20082;-83
2022/11/11 10:09:21;;;;;;;11.02;3.00;;;;;;;15.65;100.00;99517.38;6279377;22;20429;-84
2022/11/11 10:12:09;;;;;;;6.38;2.50;;;;;;;15.70;100.00;99501.63;6226250;22;20011;-82
2022/11/11 10:14:48;;;;;;;6.53;2.72;;;;;;;15.90;100.00;99513.91;6279264;22;20007;-83
2022/11/11 10:17:45;;;;;;;6.07;2.20;;;;;;;15.93;100.00;99518.81;6279219;22;20089;-83
2022/11/11 10:20:22;;;;;;;7.88;2.40;;;;;;;15.84;100.00;99519.03;6279472;22;20004;-83
2022/11/11 10:23:08;;;;;;;5.32;2.30;;;;;;;15.94;100.00;99520.41;6275977;22;20008;-82
2022/11/11 10:25:44;;;;;;;14.52;2.33;;;;;;;15.95;100.00;99516.75;6275939;22;20016;-84
2022/11/11 10:28:16;;;;;;;5.05;1.90;;;;;;;16.07;100.00;99524.78;6278069;22;20043;-83
2022/11/11 10:30:42;;;;;;;5.80;2.10;;;;;;;16.18;100.00;99510.00;6276289;22;20043;-83
2022/11/11 10:33:40;;;;;;;6.82;2.22;;;;;;;16.58;100.00;99536.06;6277714;22;20164;-83
2022/11/11 10:36:16;;;;;;;7.90;2.30;;;;;;;16.66;100.00;99535.75;6229884;22;20015;-83
2022/11/11 10:39:03;;;;;;;5.80;2.55;;;;;;;16.37;100.00;99543.41;6277502;22;20019;-83
2022/11/11 10:41:35;;;;;;;5.88;2.38;;;;;;;16.46;100.00;99521.91;6276076;22;20012;-83
2022/11/11 10:44:00;;;;;;;4.32;2.38;;;;;;;16.40;100.00;99529.72;6277579;22;20012;-84
2022/11/11 10:46:35;;;;;;;4.15;2.22;;;;;;;16.52;100.00;99531.66;6275976;22;20019;-83
2022/11/11 10:49:18;;;;;;;9.30;2.05;;;;;;;16.63;100.00;99522.16;6275826;22;20019;-84
2022/11/11 10:52:24;;;;;;;4.80;2.20;;;;;;;16.81;100.00;99545.16;6276030;22;20008;-83
2022/11/11 10:54:56;;;;;;;4.47;2.13;;;;;;;16.65;100.00;99528.03;6154068;23;20014;-83
2022/11/11 10:57:29;;;;;;;6.05;2.60;;;;;;;16.34;100.00;99535.09;6129513;23;20416;-83
2022/11/11 11:00:04;;;;;;;12.05;2.60;;;;;;;16.44;100.00;99540.69;6210772;22;20011;-83
2022/11/11 11:02:39;;;;;;;3.53;2.35;;;;;;;16.83;100.00;99545.75;6275645;22;20038;-84
2022/11/11 11:05:12;;;;;;;5.28;2.30;;;;;;;16.85;100.00;99531.25;6276023;22;20008;-83
2022/11/11 11:07:48;;;;;;;8.77;2.88;;;;;;;16.66;100.00;99535.75;6277521;22;20393;-82
2022/11/11 11:10:23;;;;;;;5.28;2.15;;;;;;;16.71;100.00;99540.38;6275756;22;20418;-83
2022/11/11 11:13:27;;;;;;;5.55;1.98;;;;;;;16.51;100.00;99535.31;6277263;22;20012;-83
2022/11/11 11:15:56;;;;;;;;;;;;;;;16.75;100.00;99538.09;6184491;22;20366;-83
2022/11/11 11:18:22;;;;;;;4.05;2.47;;;;;;;16.79;100.00;99544.56;6275810;22;19907;-83
2022/11/11 11:20:59;;;;;;;6.72;2.58;;;;;;;16.79;100.00;99544.56;6278057;22;20030;-82
2022/11/11 11:23:42;;;;;;;4.65;2.63;;;;;;;16.66;100.00;99549.00;6308090;22;20076;-83
2022/11/11 11:26:09;;;;;;;4.72;2.33;;;;;;;16.93;100.00;99537.25;6307975;22;20011;-82
2022/11/11 11:28:53;;;;;;;9.18;2.40;;;;;;;16.63;100.00;99533.53;6280867;22;20015;-83
2022/11/11 11:31:36;;;;;;;11.15;3.70;;;;;;;16.75;100.00;99546.84;6255014;22;20007;-83
2022/11/11 11:34:02;;;;;;;7.47;2.78;;;;;;;16.62;100.00;99537.22;6308153;22;20410;-82
2022/11/11 11:36:29;;;;;;;6.20;2.65;;;;;;;16.68;100.00;99546.13;6280663;22;20010;-83
2022/11/11 11:38:57;;;;;;;7.43;2.83;;;;;;;16.85;100.00;99535.72;6280823;22;20349;-83
2022/11/11 11:41:43;;;;;;;5.38;3.00;;;;;;;16.79;100.00;99552.53;6280639;22;20345;-83
2022/11/11 11:44:29;;;;;;;10.73;2.50;;;;;;;16.90;100.00;99546.47;6308030;22;20011;-83
2022/11/11 11:47:05;;;;;;;4.63;2.55;;;;;;;16.90;100.00;99543.84;6307875;22;20337;-84
2022/11/11 11:49:42;;;;;;;5.43;2.60;;;;;;;17.07;100.00;99545.88;6280599;22;20345;-82
2022/11/11 11:52:15;;;;;;;3.80;2.08;;;;;;;17.15;100.00;99550.06;6280800;22;20007;-84
2022/11/11 11:54:52;;;;;;;6.85;3.10;;;;;;;17.06;100.00;99552.22;6307872;22;20133;-83
2022/11/11 11:57:34;;;;;;;9.73;2.97;;;;;;;17.07;100.00;99554.66;6280896;22;20136;-83
2022/11/11 12:00:14;;;;;;;9.90;2.72;;;;;;;17.09;100.00;99557.06;6307410;22;20015;-84
2022/11/11 12:02:58;;;;;;;10.45;2.65;;;;;;;17.10;100.00;99554.19;6307761;22;20283;-83
2022/11/11 12:05:36;;;;;;;7.13;3.42;;;;;;;17.23;100.00;99553.19;6307516;22;20388;-82
2022/11/11 12:08:14;;;;;;;6.47;2.42;;;;;;;17.22;100.00;99540.97;6279082;22;20048;-81
2022/11/11 12:10:54;;;;;;;3.55;2.50;;;;;;;17.21;100.00;99551.81;6307115;22;20018;-81
2022/11/11 12:13:41;;;;;;;4.82;2.90;;;;;;;17.13;100.00;99542.34;6306995;22;20010;-81
2022/11/11 12:16:26;;;;;;;8.57;2.75;;;;;;;16.92;100.00;99543.59;6280104;22;20014;-82
2022/11/11 12:19:03;;;;;;;5.18;2.55;;;;;;;17.39;100.00;99548.28;6279193;22;20022;-83
2022/11/11 12:22:05;;;;;;;5.50;2.60;;;;;;;17.30;100.00;99541.69;6274296;22;20041;-83
2022/11/11 12:25:19;;;;;;;5.78;2.17;;;;;;;17.38;100.00;99550.13;6268975;22;20149;-82
2022/11/11 12:27:57;;;;;;;9.13;3.80;;;;;;;17.25;100.00;99540.50;6241943;22;20015;-82
2022/11/11 12:30:27;;;;;;;2.83;2.00;;;;;;;17.43;100.00;99536.19;6274682;22;20022;-82
2022/11/11 12:33:20;;;;;;;6.63;2.22;;;;;;;17.48;100.00;99541.59;6275618;22;20004;-82
2022/11/11 12:35:57;;;;;;;10.25;2.70;;;;;;;17.49;100.00;99535.28;6276005;22;20037;-83
2022/11/11 12:38:49;;;;;;;4.38;2.40;;;;;;;17.23;100.00;99533.84;6275960;22;20057;-82
2022/11/11 12:41:48;;;;;;;7.18;2.10;;;;;;;17.55;100.00;99539.69;6274232;22;20334;-83
2022/11/11 12:44:16;;;;;;;3.25;2.13;;;;;;;17.58;100.00;99529.63;6275933;22;20387;-83
2022/11/11 12:47:17;;;;;;;4.18;2.25;;;;;;;17.74;100.00;99536.09;6274670;22;20007;-81
2022/11/11 12:50:02;;;;;;;3.95;2.30;;;;;;;17.76;100.00;99528.72;6213996;22;20378;-82
2022/11/11 12:52:34;;;;;;;4.47;2.10;;;;;;;17.48;100.00;99531.00;6274439;22;20380;-81
2022/11/11 12:55:00;;;;;;;5.45;2.53;;;;;;;17.46;100.00;99530.41;6274433;22;20016;-83
2022/11/11 12:57:43;;;;;;;7.43;2.63;;;;;;;17.59;100.00;99534.72;6275475;22;20004;-81